Time,TemperatureF,DewpointF,PressureIn,WindDirection,WindDirectionDegrees,WindSpeedMPH,WindSpeedGustMPH,Humidity,HourlyPrecipIn,Conditions,Clouds,dailyrainin,SoftwareType,DateUTC
2013-03-08 00:03:00,45.7,24.9,29.82,SW,225,6.9,13.2,44,0.00,,,0.00,WUHU21623XXSP,2013-03-08 08:03:00,
2013-03-08 00:08:00,45.7,24.9,29.82,SSW,202,7.2,13.4,44,0.00,,,0.00,WUHU21623XXSP,2013-03-08 08:08:00,
2013-03-08 00:13:00,45.7,24.9,29.82,SW,225,6.3,13.4,44,0.00,,,0.00,WUHU21623XXSP,2013-03-08 08:13:00,
2013-03-08 00:18:00,45.7,24.9,29.82,SW,225,7.4,13.0,44,0.00,,,0.00,WUHU21623XXSP,2013-03-08 08:18:00,
2013-03-08 00:23:00,45.7,24.9,29.81,SW,225,3.6,13.0,44,0.00,,,0.00,WUHU21623XXSP,2013-03-08 08:23:00,
2013-03-08 00:28:00,45.7,25.4,29.81,SSW,202,8.5,12.1,45,0.00,,,0.00,WUHU21623XXSP,2013-03-08 08:28:00,
2013-03-08 00:33:00,45.7,25.4,29.81,SSW,202,7.8,11.6,45,0.00,,,0.00,WUHU21623XXSP,2013-03-08 08:33:00,
2013-03-08 00:38:00,45.5,25.3,29.81,South,180,4.5,11.6,45,0.00,,,0.00,WUHU21623XXSP,2013-03-08 08:38:00,
2013-03-08 00:43:00,45.7,25.4,29.81,SSW,202,7.4,11.0,45,0.00,,,0.00,WUHU21623XXSP,2013-03-08 08:43:00,
2013-03-08 00:48:00,45.7,25.4,29.81,SSW,202,8.7,11.6,45,0.00,,,0.00,WUHU21623XXSP,2013-03-08 08:48:00,
2013-03-08 00:53:00,45.7,25.4,29.81,SSW,202,11.2,14.5,45,0.00,,,0.00,WUHU21623XXSP,2013-03-08 08:53:00,
2013-03-08 00:58:00,45.7,26.0,29.81,SSW,202,9.8,14.5,46,0.00,,,0.00,WUHU21623XXSP,2013-03-08 08:58:00,
2013-03-08 01:03:00,45.7,26.0,29.81,SSW,202,8.1,16.3,46,0.00,,,0.00,WUHU21623XXSP,2013-03-08 09:03:00,
2013-03-08 01:08:00,45.7,26.0,29.81,SSW,202,6.5,18.1,46,0.00,,,0.00,WUHU21623XXSP,2013-03-08 09:08:00,
2013-03-08 01:13:00,45.9,26.1,29.80,SSW,202,11.6,18.1,46,0.00,,,0.00,WUHU21623XXSP,2013-03-08 09:13:00,
2013-03-08 01:18:00,46.0,26.3,29.80,SW,225,7.6,17.0,46,0.00,,,0.00,WUHU21623XXSP,2013-03-08 09:18:00,
2013-03-08 01:24:00,46.0,26.3,29.80,SW,225,8.1,17.0,46,0.00,,,0.00,WUHU21623XXSP,2013-03-08 09:24:00,
2013-03-08 01:28:00,46.0,26.3,29.80,SW,225,8.3,15.0,46,0.00,,,0.00,WUHU21623XXSP,2013-03-08 09:28:00,
2013-03-08 01:34:00,46.0,26.8,29.80,SW,225,0.0,11.9,47,0.00,,,0.00,WUHU21623XXSP,2013-03-08 09:34:00,
2013-03-08 01:39:00,46.0,26.8,29.79,SW,225,3.1,11.9,47,0.00,,,0.00,WUHU21623XXSP,2013-03-08 09:39:00,
2013-03-08 01:44:00,46.0,27.4,29.80,SSW,202,5.8,13.2,48,0.00,,,0.00,WUHU21623XXSP,2013-03-08 09:44:00,
2013-03-08 01:49:00,46.0,27.4,29.79,SW,225,9.8,15.0,48,0.00,,,0.00,WUHU21623XXSP,2013-03-08 09:49:00,
2013-03-08 01:54:00,45.7,28.1,29.79,SW,225,11.2,15.0,50,0.00,,,0.00,WUHU21623XXSP,2013-03-08 09:54:00,
2013-03-08 01:59:00,45.7,28.1,29.79,SW,225,6.3,12.8,50,0.00,,,0.00,WUHU21623XXSP,2013-03-08 09:59:00,
2013-03-08 02:04:00,45.7,28.6,29.79,SW,225,7.2,12.8,51,0.00,,,0.00,WUHU21623XXSP,2013-03-08 10:04:00,
2013-03-08 02:08:00,45.5,28.9,29.78,SW,225,7.8,12.1,52,0.00,,,0.00,WUHU21623XXSP,2013-03-08 10:08:00,
2013-03-08 02:13:00,45.3,29.1,29.78,SW,225,2.0,13.6,53,0.00,,,0.00,WUHU21623XXSP,2013-03-08 10:13:00,
2013-03-08 02:18:00,45.3,29.1,29.78,SW,225,0.0,13.6,53,0.00,,,0.00,WUHU21623XXSP,2013-03-08 10:18:00,
2013-03-08 02:23:00,45.5,29.3,29.77,SW,225,8.3,12.3,53,0.00,,,0.00,WUHU21623XXSP,2013-03-08 10:23:00,
2013-03-08 02:28:00,45.3,30.0,29.77,SW,225,7.6,11.9,55,0.00,,,0.00,WUHU21623XXSP,2013-03-08 10:28:00,
2013-03-08 02:33:00,45.3,30.0,29.77,SW,225,5.6,12.3,55,0.00,,,0.00,WUHU21623XXSP,2013-03-08 10:33:00,
2013-03-08 02:38:00,45.1,29.9,29.77,SW,225,2.0,12.3,55,0.00,,,0.00,WUHU21623XXSP,2013-03-08 10:38:00,
2013-03-08 02:44:00,45.1,30.3,29.77,SW,225,0.0,11.0,56,0.00,,,0.00,WUHU21623XXSP,2013-03-08 10:44:00,
2013-03-08 02:49:00,45.1,30.8,29.77,SW,225,0.0,6.3,57,0.00,,,0.00,WUHU21623XXSP,2013-03-08 10:49:00,
2013-03-08 02:53:00,45.1,31.2,29.77,SW,225,0.7,8.5,58,0.00,,,0.00,WUHU21623XXSP,2013-03-08 10:53:00,
2013-03-08 02:58:00,44.8,30.9,29.77,SW,225,0.0,10.1,58,0.00,,,0.00,WUHU21623XXSP,2013-03-08 10:58:00,
2013-03-08 03:03:00,44.8,31.4,29.77,SW,225,1.3,10.1,59,0.00,,,0.00,WUHU21623XXSP,2013-03-08 11:03:00,
2013-03-08 03:08:00,44.8,31.4,29.76,SW,225,0.0,5.6,59,0.00,,,0.00,WUHU21623XXSP,2013-03-08 11:08:00,
2013-03-08 03:13:00,45.0,32.0,29.76,SW,225,0.0,5.6,60,0.00,,,0.00,WUHU21623XXSP,2013-03-08 11:13:00,
2013-03-08 03:18:00,45.0,32.0,29.76,SW,225,4.9,6.5,60,0.00,,,0.00,WUHU21623XXSP,2013-03-08 11:18:00,
2013-03-08 03:23:00,44.4,31.8,29.76,SW,225,0.0,12.8,61,0.00,,,0.00,WUHU21623XXSP,2013-03-08 11:23:00,
2013-03-08 03:28:00,44.4,31.8,29.76,SW,225,0.0,12.8,61,0.00,,,0.00,WUHU21623XXSP,2013-03-08 11:28:00,
2013-03-08 03:33:00,44.6,32.0,29.75,SW,225,0.0,4.0,61,0.00,,,0.00,WUHU21623XXSP,2013-03-08 11:33:00,
2013-03-08 03:38:00,45.0,32.3,29.75,SW,225,0.0,1.8,61,0.00,,,0.00,WUHU21623XXSP,2013-03-08 11:38:00,
2013-03-08 03:43:00,45.0,32.7,29.75,SW,225,0.0,0.0,62,0.00,,,0.00,WUHU21623XXSP,2013-03-08 11:43:00,
2013-03-08 03:48:00,45.0,32.7,29.75,SW,225,0.0,0.0,62,0.00,,,0.00,WUHU21623XXSP,2013-03-08 11:48:00,
2013-03-08 03:54:00,45.0,32.7,29.75,SW,225,0.0,0.0,62,0.00,,,0.00,WUHU21623XXSP,2013-03-08 11:54:00,
2013-03-08 03:58:00,45.0,32.7,29.75,SW,225,0.0,0.0,62,0.00,,,0.00,WUHU21623XXSP,2013-03-08 11:58:00,
2013-03-08 04:04:00,44.8,32.6,29.74,SW,225,0.0,0.0,62,0.00,,,0.00,WUHU21623XXSP,2013-03-08 12:04:00,
2013-03-08 04:09:00,44.8,32.6,29.74,SW,225,0.0,0.0,62,0.00,,,0.00,WUHU21623XXSP,2013-03-08 12:09:00,
2013-03-08 04:14:00,44.8,32.6,29.75,SW,225,0.0,0.0,62,0.00,,,0.00,WUHU21623XXSP,2013-03-08 12:14:00,
2013-03-08 04:19:00,44.8,32.9,29.75,SW,225,0.0,0.0,63,0.00,,,0.00,WUHU21623XXSP,2013-03-08 12:19:00,
2013-03-08 04:24:00,44.4,32.6,29.75,SW,225,0.0,0.0,63,0.00,,,0.00,WUHU21623XXSP,2013-03-08 12:24:00,
2013-03-08 04:29:00,44.8,32.9,29.75,SW,225,0.0,0.0,63,0.00,,,0.00,WUHU21623XXSP,2013-03-08 12:29:00,
2013-03-08 04:34:00,44.4,33.0,29.74,SW,225,0.0,0.0,64,0.00,,,0.00,WUHU21623XXSP,2013-03-08 12:34:00,
2013-03-08 04:39:00,44.2,32.8,29.74,SW,225,0.0,3.8,64,0.00,,,0.00,WUHU21623XXSP,2013-03-08 12:39:00,
2013-03-08 04:44:00,44.1,32.6,29.74,SW,225,0.0,3.8,64,0.00,,,0.00,WUHU21623XXSP,2013-03-08 12:44:00,
2013-03-08 04:49:00,44.2,33.2,29.74,SW,225,0.0,2.9,65,0.00,,,0.00,WUHU21623XXSP,2013-03-08 12:49:00,
2013-03-08 04:54:00,44.1,33.0,29.74,SW,225,0.0,4.9,65,0.00,,,0.00,WUHU21623XXSP,2013-03-08 12:54:00,
2013-03-08 04:59:00,43.9,32.8,29.74,SW,225,2.5,4.9,65,0.00,,,0.00,WUHU21623XXSP,2013-03-08 12:59:00,
2013-03-08 05:04:00,43.7,33.1,29.74,SW,225,0.0,7.4,66,0.00,,,0.00,WUHU21623XXSP,2013-03-08 13:04:00,
2013-03-08 05:09:00,43.5,32.9,29.74,SW,225,0.0,7.4,66,0.00,,,0.00,WUHU21623XXSP,2013-03-08 13:09:00,
2013-03-08 05:14:00,43.5,33.3,29.74,SW,225,0.0,7.2,67,0.00,,,0.00,WUHU21623XXSP,2013-03-08 13:14:00,
2013-03-08 05:19:00,43.3,33.1,29.74,SW,225,0.0,7.2,67,0.00,,,0.00,WUHU21623XXSP,2013-03-08 13:19:00,
2013-03-08 05:24:00,43.3,33.5,29.75,SW,225,0.0,4.5,68,0.00,,,0.00,WUHU21623XXSP,2013-03-08 13:24:00,
2013-03-08 05:29:00,43.5,33.7,29.75,SW,225,0.0,4.7,68,0.00,,,0.00,WUHU21623XXSP,2013-03-08 13:29:00,
2013-03-08 05:34:00,43.2,33.7,29.75,WSW,247,1.1,7.2,69,0.02,,,0.03,WUHU21623XXSP,2013-03-08 13:34:00,
2013-03-08 05:39:00,43.0,33.6,29.75,SW,225,4.3,8.5,69,0.02,,,0.03,WUHU21623XXSP,2013-03-08 13:39:00,
2013-03-08 05:44:00,42.6,33.2,29.75,SW,225,0.0,8.5,69,0.02,,,0.03,WUHU21623XXSP,2013-03-08 13:44:00,
2013-03-08 05:49:00,42.4,33.4,29.75,WSW,247,12.5,12.5,70,0.02,,,0.03,WUHU21623XXSP,2013-03-08 13:49:00,
2013-03-08 05:54:00,42.1,33.4,29.75,SW,225,5.6,12.5,71,0.04,,,0.05,WUHU21623XXSP,2013-03-08 13:54:00,
2013-03-08 05:59:00,41.5,32.9,29.76,SW,225,8.7,16.1,71,0.06,,,0.07,WUHU21623XXSP,2013-03-08 13:59:00,
2013-03-08 06:04:00,40.8,32.5,29.76,WSW,247,15.2,16.1,72,0.06,,,0.07,WUHU21623XXSP,2013-03-08 14:04:00,
2013-03-08 06:09:00,40.1,31.8,29.76,SW,225,12.1,24.2,72,0.08,,,0.09,WUHU21623XXSP,2013-03-08 14:09:00,
2013-03-08 06:14:00,39.4,31.4,29.76,West,270,28.4,28.4,73,0.10,,,0.11,WUHU21623XXSP,2013-03-08 14:14:00,
2013-03-08 06:19:00,38.5,30.5,29.76,SW,225,18.3,28.6,73,0.12,,,0.13,WUHU21623XXSP,2013-03-08 14:19:00,
2013-03-08 06:24:00,38.5,30.5,29.75,SSW,202,15.7,29.1,73,0.12,,,0.13,WUHU21623XXSP,2013-03-08 14:24:00,
2013-03-08 06:29:00,38.1,30.2,29.75,SSW,202,22.8,29.1,73,0.10,,,0.13,WUHU21623XXSP,2013-03-08 14:29:00,
2013-03-08 06:34:00,38.1,30.2,29.75,SW,225,14.3,30.6,73,0.10,,,0.13,WUHU21623XXSP,2013-03-08 14:34:00,
2013-03-08 06:39:00,37.9,30.0,29.75,WSW,247,12.1,30.6,73,0.10,,,0.13,WUHU21623XXSP,2013-03-08 14:39:00,
2013-03-08 06:44:00,37.9,30.0,29.75,WSW,247,14.5,29.1,73,0.10,,,0.13,WUHU21623XXSP,2013-03-08 14:44:00,
2013-03-08 06:49:00,38.1,30.2,29.75,SW,225,6.7,28.0,73,0.08,,,0.13,WUHU21623XXSP,2013-03-08 14:49:00,
2013-03-08 06:54:00,38.3,30.4,29.76,SW,225,18.6,33.3,73,0.08,,,0.13,WUHU21623XXSP,2013-03-08 14:54:00,
2013-03-08 06:59:00,38.5,30.5,29.77,SSW,202,25.9,40.5,73,0.06,,,0.13,WUHU21623XXSP,2013-03-08 14:59:00,
2013-03-08 07:04:00,38.3,30.1,29.77,SW,225,25.1,40.5,72,0.04,,,0.13,WUHU21623XXSP,2013-03-08 15:04:00,
2013-03-08 07:09:00,37.9,30.0,29.77,SW,225,21.5,32.4,73,0.02,,,0.13,WUHU21623XXSP,2013-03-08 15:09:00,
2013-03-08 07:14:00,37.8,29.9,29.77,SW,225,20.6,33.1,73,0.02,,,0.13,WUHU21623XXSP,2013-03-08 15:14:00,
2013-03-08 07:19:00,37.6,29.7,29.77,WSW,247,25.7,33.1,73,0.00,,,0.13,WUHU21623XXSP,2013-03-08 15:19:00,
2013-03-08 07:24:00,37.6,29.7,29.77,SW,225,16.3,28.4,73,0.00,,,0.13,WUHU21623XXSP,2013-03-08 15:24:00,
2013-03-08 07:29:00,37.9,29.7,29.76,SW,225,10.5,25.7,72,0.00,,,0.13,WUHU21623XXSP,2013-03-08 15:29:00,
2013-03-08 07:34:00,38.3,29.7,29.76,SW,225,14.8,18.6,71,0.00,,,0.13,WUHU21623XXSP,2013-03-08 15:34:00,
2013-03-08 07:39:00,38.5,29.2,29.75,SW,225,7.2,17.0,69,0.00,,,0.13,WUHU21623XXSP,2013-03-08 15:39:00,
2013-03-08 07:44:00,39.0,28.9,29.75,SW,225,6.9,18.3,67,0.00,,,0.13,WUHU21623XXSP,2013-03-08 15:44:00,
2013-03-08 07:49:00,39.0,27.8,29.75,SSW,202,9.8,19.2,64,0.00,,,0.13,WUHU21623XXSP,2013-03-08 15:49:00,
2013-03-08 07:54:00,39.4,28.1,29.75,SSW,202,11.0,19.2,64,0.00,,,0.13,WUHU21623XXSP,2013-03-08 15:54:00,
2013-03-08 07:59:00,39.0,27.8,29.75,South,180,8.3,17.4,64,0.00,,,0.13,WUHU21623XXSP,2013-03-08 15:59:00,
2013-03-08 08:04:00,39.0,27.8,29.75,SSE,157,2.9,13.6,64,0.00,,,0.13,WUHU21623XXSP,2013-03-08 16:04:00,
2013-03-08 08:10:00,39.0,27.8,29.75,SSW,202,8.5,15.4,64,0.00,,,0.13,WUHU21623XXSP,2013-03-08 16:10:00,
2013-03-08 08:15:00,39.6,27.9,29.74,SSW,202,4.7,21.7,63,0.00,,,0.13,WUHU21623XXSP,2013-03-08 16:15:00,
2013-03-08 08:20:00,40.1,28.5,29.75,SW,225,13.6,21.7,63,0.00,,,0.13,WUHU21623XXSP,2013-03-08 16:20:00,
2013-03-08 08:25:00,40.6,28.6,29.76,SW,225,13.0,18.6,62,0.00,,,0.13,WUHU21623XXSP,2013-03-08 16:25:00,
2013-03-08 08:30:00,40.8,28.8,29.75,SSW,202,8.7,17.2,62,0.00,,,0.13,WUHU21623XXSP,2013-03-08 16:30:00,
2013-03-08 08:35:00,40.8,28.8,29.76,SW,225,11.2,18.1,62,0.00,,,0.13,WUHU21623XXSP,2013-03-08 16:35:00,
2013-03-08 08:40:00,40.8,28.8,29.76,SSW,202,6.7,19.7,62,0.00,,,0.13,WUHU21623XXSP,2013-03-08 16:40:00,
2013-03-08 08:45:00,41.0,29.4,29.76,SW,225,8.5,19.0,63,0.00,,,0.13,WUHU21623XXSP,2013-03-08 16:45:00,
2013-03-08 08:50:00,41.4,29.7,29.77,SSW,202,6.3,18.1,63,0.00,,,0.13,WUHU21623XXSP,2013-03-08 16:50:00,
2013-03-08 08:55:00,41.9,30.6,29.77,WSW,247,15.4,16.8,64,0.00,,,0.13,WUHU21623XXSP,2013-03-08 16:55:00,
2013-03-08 09:00:00,41.9,30.6,29.76,SW,225,15.4,18.1,64,0.00,,,0.13,WUHU21623XXSP,2013-03-08 17:00:00,
2013-03-08 09:05:00,42.6,31.2,29.76,WSW,247,4.0,18.1,64,0.00,,,0.13,WUHU21623XXSP,2013-03-08 17:05:00,
2013-03-08 09:10:00,44.1,32.6,29.76,WSW,247,14.5,17.2,64,0.00,,,0.13,WUHU21623XXSP,2013-03-08 17:10:00,
2013-03-08 09:15:00,45.0,33.1,29.77,WSW,247,6.9,17.2,63,0.00,,,0.13,WUHU21623XXSP,2013-03-08 17:15:00,
2013-03-08 09:20:00,45.5,32.8,29.77,SSW,202,7.8,15.4,61,0.00,,,0.13,WUHU21623XXSP,2013-03-08 17:20:00,
2013-03-08 09:25:00,46.2,32.2,29.77,SSW,202,15.7,19.7,58,0.00,,,0.13,WUHU21623XXSP,2013-03-08 17:25:00,
2013-03-08 09:30:00,46.2,32.2,29.77,SW,225,10.3,19.7,58,0.00,,,0.13,WUHU21623XXSP,2013-03-08 17:30:00,
2013-03-08 09:35:00,46.2,31.3,29.77,SSW,202,24.8,24.8,56,0.00,,,0.13,WUHU21623XXSP,2013-03-08 17:35:00,
2013-03-08 09:40:00,46.0,31.1,29.78,SSE,157,6.3,25.9,56,0.00,,,0.13,WUHU21623XXSP,2013-03-08 17:40:00,
2013-03-08 09:45:00,46.2,31.7,29.78,SSW,202,6.9,25.9,57,0.00,,,0.13,WUHU21623XXSP,2013-03-08 17:45:00,
2013-03-08 09:50:00,46.2,31.3,29.78,SW,225,9.2,24.4,56,0.00,,,0.13,WUHU21623XXSP,2013-03-08 17:50:00,
2013-03-08 09:55:00,46.8,31.8,29.78,SW,225,18.6,24.4,56,0.00,,,0.13,WUHU21623XXSP,2013-03-08 17:55:00,
2013-03-08 10:00:00,46.6,31.2,29.79,SSW,202,9.6,24.4,55,0.00,,,0.13,WUHU21623XXSP,2013-03-08 18:00:00,
2013-03-08 10:05:00,46.4,31.0,29.78,SSW,202,12.1,25.9,55,0.00,,,0.13,WUHU21623XXSP,2013-03-08 18:05:00,
2013-03-08 10:10:00,46.8,30.9,29.78,SW,225,16.1,25.9,54,0.00,,,0.13,WUHU21623XXSP,2013-03-08 18:10:00,
2013-03-08 10:15:00,46.6,29.4,29.78,SSW,202,7.4,32.0,51,0.00,,,0.13,WUHU21623XXSP,2013-03-08 18:15:00,
2013-03-08 10:20:00,46.6,29.4,29.79,SSW,202,8.1,32.0,51,0.00,,,0.13,WUHU21623XXSP,2013-03-08 18:20:00,
2013-03-08 10:25:00,46.8,29.5,29.79,SW,225,21.5,27.3,51,0.00,,,0.13,WUHU21623XXSP,2013-03-08 18:25:00,
2013-03-08 10:30:00,46.9,28.7,29.79,WSW,247,22.4,32.2,49,0.00,,,0.13,WUHU21623XXSP,2013-03-08 18:30:00,
2013-03-08 10:35:00,46.9,28.2,29.79,SW,225,22.4,32.2,48,0.00,,,0.13,WUHU21623XXSP,2013-03-08 18:35:00,
2013-03-08 10:40:00,47.8,29.5,29.80,WSW,247,16.1,30.2,49,0.00,,,0.13,WUHU21623XXSP,2013-03-08 18:40:00,
2013-03-08 10:45:00,48.2,28.8,29.80,SSW,202,12.1,25.7,47,0.00,,,0.13,WUHU21623XXSP,2013-03-08 18:45:00,
2013-03-08 10:50:00,48.7,28.7,29.80,SW,225,12.1,19.0,46,0.00,,,0.13,WUHU21623XXSP,2013-03-08 18:50:00,
2013-03-08 10:55:00,48.9,27.3,29.80,WSW,247,10.5,30.0,43,0.00,,,0.13,WUHU21623XXSP,2013-03-08 18:55:00,
2013-03-08 11:00:00,48.4,26.8,29.80,SSW,202,21.5,30.0,43,0.00,,,0.13,WUHU21623XXSP,2013-03-08 19:00:00,
2013-03-08 11:05:00,48.7,27.6,29.80,SW,225,6.3,25.3,44,0.00,,,0.13,WUHU21623XXSP,2013-03-08 19:05:00,
2013-03-08 11:10:00,48.9,27.8,29.80,SSW,202,15.2,21.9,44,0.00,,,0.13,WUHU21623XXSP,2013-03-08 19:10:00,
2013-03-08 11:15:00,49.1,27.4,29.80,SW,225,17.0,25.9,43,0.00,,,0.13,WUHU21623XXSP,2013-03-08 19:15:00,
2013-03-08 11:20:00,49.3,27.6,29.80,SSW,202,12.1,25.9,43,0.00,,,0.13,WUHU21623XXSP,2013-03-08 19:20:00,
2013-03-08 11:25:00,49.8,28.1,29.79,WSW,247,11.9,22.4,43,0.00,,,0.13,WUHU21623XXSP,2013-03-08 19:25:00,
2013-03-08 11:30:00,49.8,27.5,29.79,SSW,202,10.7,23.3,42,0.00,,,0.13,WUHU21623XXSP,2013-03-08 19:30:00,
2013-03-08 11:35:00,50.2,29.0,29.80,SSW,202,19.9,23.3,44,0.00,,,0.13,WUHU21623XXSP,2013-03-08 19:35:00,
2013-03-08 11:40:00,50.2,29.0,29.80,SW,225,16.6,24.6,44,0.00,,,0.13,WUHU21623XXSP,2013-03-08 19:40:00,
2013-03-08 11:45:00,50.2,29.6,29.79,WSW,247,11.6,24.6,45,0.00,,,0.13,WUHU21623XXSP,2013-03-08 19:45:00,
2013-03-08 11:50:00,50.5,29.3,29.80,SW,225,14.1,22.8,44,0.00,,,0.13,WUHU21623XXSP,2013-03-08 19:50:00,
2013-03-08 11:55:00,50.2,28.4,29.80,SW,225,11.6,31.1,43,0.00,,,0.13,WUHU21623XXSP,2013-03-08 19:55:00,
2013-03-08 12:00:00,49.8,27.5,29.80,SSW,202,9.2,31.1,42,0.00,,,0.13,WUHU21623XXSP,2013-03-08 20:00:00,
2013-03-08 12:05:00,49.5,28.3,29.80,SW,225,18.8,25.7,44,0.00,,,0.13,WUHU21623XXSP,2013-03-08 20:05:00,
2013-03-08 12:11:00,49.3,28.1,29.80,WSW,247,22.8,28.9,44,0.00,,,0.13,WUHU21623XXSP,2013-03-08 20:11:00,
2013-03-08 12:16:00,49.3,28.1,29.79,SW,225,6.7,28.9,44,0.00,,,0.13,WUHU21623XXSP,2013-03-08 20:16:00,
2013-03-08 12:21:00,49.6,27.9,29.78,SW,225,12.1,29.8,43,0.00,,,0.13,WUHU21623XXSP,2013-03-08 20:21:00,
2013-03-08 12:26:00,49.8,27.5,29.78,SW,225,13.0,29.8,42,0.00,,,0.13,WUHU21623XXSP,2013-03-08 20:26:00,
2013-03-08 12:31:00,49.8,27.0,29.77,SW,225,6.9,21.7,41,0.00,,,0.13,WUHU21623XXSP,2013-03-08 20:31:00,
2013-03-08 12:36:00,50.4,26.9,29.77,SSW,202,13.4,29.1,40,0.00,,,0.13,WUHU21623XXSP,2013-03-08 20:36:00,
2013-03-08 12:41:00,50.0,27.2,29.77,SW,225,11.0,29.1,41,0.00,,,0.13,WUHU21623XXSP,2013-03-08 20:41:00,
2013-03-08 12:46:00,50.2,26.1,29.76,SW,225,17.0,25.1,39,0.00,,,0.13,WUHU21623XXSP,2013-03-08 20:46:00,
2013-03-08 12:51:00,50.5,26.4,29.76,WSW,247,21.5,27.3,39,0.00,,,0.13,WUHU21623XXSP,2013-03-08 20:51:00,
2013-03-08 12:56:00,50.9,25.4,29.76,SW,225,11.6,27.3,38,0.00,,,0.13,WUHU21623XXSP,2013-03-08 20:56:00,
2013-03-08 13:01:00,51.6,26.0,29.76,WSW,247,11.6,23.5,37,0.00,,,0.13,WUHU21623XXSP,2013-03-08 21:01:00,
2013-03-08 13:06:00,52.0,27.0,29.77,WSW,247,14.8,22.8,38,0.00,,,0.13,WUHU21623XXSP,2013-03-08 21:06:00,
2013-03-08 13:11:00,52.5,27.5,29.77,SW,225,10.3,21.5,38,0.00,,,0.13,WUHU21623XXSP,2013-03-08 21:11:00,
2013-03-08 13:16:00,52.2,27.9,29.77,SW,225,15.2,21.5,39,0.00,,,0.13,WUHU21623XXSP,2013-03-08 21:16:00,
2013-03-08 13:21:00,52.2,28.5,29.77,WSW,247,12.8,20.6,40,0.00,,,0.13,WUHU21623XXSP,2013-03-08 21:21:00,
2013-03-08 13:26:00,51.6,28.6,29.77,WSW,247,15.4,23.5,41,0.00,,,0.13,WUHU21623XXSP,2013-03-08 21:26:00,
2013-03-08 13:31:00,51.1,29.2,29.77,WSW,247,11.9,23.5,43,0.00,,,0.13,WUHU21623XXSP,2013-03-08 21:31:00,
2013-03-08 13:36:00,50.5,29.3,29.77,WSW,247,19.2,27.5,44,0.00,,,0.13,WUHU21623XXSP,2013-03-08 21:36:00,
2013-03-08 13:41:00,49.3,28.1,29.77,SW,225,16.3,27.5,44,0.00,,,0.13,WUHU21623XXSP,2013-03-08 21:41:00,
2013-03-08 13:46:00,48.0,27.5,29.77,SW,225,13.4,25.7,45,0.00,,,0.13,WUHU21623XXSP,2013-03-08 21:46:00,
2013-03-08 13:51:00,48.4,28.4,29.77,WSW,247,21.3,27.1,46,0.00,,,0.13,WUHU21623XXSP,2013-03-08 21:51:00,
2013-03-08 13:56:00,48.7,28.7,29.77,WSW,247,12.1,27.1,46,0.00,,,0.13,WUHU21623XXSP,2013-03-08 21:56:00,
2013-03-08 14:01:00,48.9,28.4,29.77,WSW,247,19.0,25.5,45,0.00,,,0.13,WUHU21623XXSP,2013-03-08 22:01:00,
2013-03-08 14:06:00,49.3,29.2,29.77,WSW,247,8.1,22.4,46,0.00,,,0.13,WUHU21623XXSP,2013-03-08 22:06:00,
2013-03-08 14:11:00,49.8,29.8,29.78,WSW,247,13.4,19.5,46,0.00,,,0.13,WUHU21623XXSP,2013-03-08 22:11:00,
2013-03-08 14:16:00,50.7,30.0,29.78,WSW,247,6.7,15.9,45,0.00,,,0.13,WUHU21623XXSP,2013-03-08 22:16:00,
2013-03-08 14:21:00,50.7,28.9,29.78,SSW,202,16.8,18.8,43,0.00,,,0.13,WUHU21623XXSP,2013-03-08 22:21:00,
2013-03-08 14:26:00,49.1,28.5,29.78,SW,225,8.3,21.3,45,0.00,,,0.13,WUHU21623XXSP,2013-03-08 22:26:00,
2013-03-08 14:31:00,48.6,29.1,29.78,SW,225,11.2,21.3,47,0.00,,,0.13,WUHU21623XXSP,2013-03-08 22:31:00,
2013-03-08 14:36:00,48.0,28.6,29.78,South,180,14.8,17.7,47,0.00,,,0.13,WUHU21623XXSP,2013-03-08 22:36:00,
2013-03-08 14:41:00,47.1,28.3,29.78,SSW,202,14.3,18.3,48,0.00,,,0.13,WUHU21623XXSP,2013-03-08 22:41:00,
2013-03-08 14:46:00,46.8,28.0,29.78,SW,225,8.1,18.3,48,0.00,,,0.13,WUHU21623XXSP,2013-03-08 22:46:00,
2013-03-08 14:51:00,46.6,28.4,29.78,SSW,202,12.3,19.7,49,0.00,,,0.13,WUHU21623XXSP,2013-03-08 22:51:00,
2013-03-08 14:56:00,47.1,28.9,29.78,WSW,247,8.1,19.7,49,0.00,,,0.13,WUHU21623XXSP,2013-03-08 22:56:00,
2013-03-08 15:01:00,47.8,29.0,29.78,WSW,247,15.0,19.9,48,0.00,,,0.13,WUHU21623XXSP,2013-03-08 23:01:00,
2013-03-08 15:06:00,47.8,29.0,29.78,WSW,247,5.8,19.9,48,0.00,,,0.13,WUHU21623XXSP,2013-03-08 23:06:00,
2013-03-08 15:11:00,47.8,29.0,29.78,SW,225,9.6,18.3,48,0.00,,,0.13,WUHU21623XXSP,2013-03-08 23:11:00,
2013-03-08 15:16:00,46.9,28.2,29.79,WSW,247,12.5,18.8,48,0.00,,,0.13,WUHU21623XXSP,2013-03-08 23:16:00,
2013-03-08 15:21:00,47.5,28.7,29.78,WSW,247,12.8,18.8,48,0.00,,,0.13,WUHU21623XXSP,2013-03-08 23:21:00,
2013-03-08 15:26:00,47.7,28.3,29.78,WSW,247,4.5,20.1,47,0.00,,,0.13,WUHU21623XXSP,2013-03-08 23:26:00,
2013-03-08 15:31:00,47.5,27.6,29.78,WSW,247,11.6,24.2,46,0.00,,,0.13,WUHU21623XXSP,2013-03-08 23:31:00,
2013-03-08 15:36:00,47.8,27.4,29.78,WSW,247,9.4,24.2,45,0.00,,,0.13,WUHU21623XXSP,2013-03-08 23:36:00,
2013-03-08 15:41:00,47.8,26.8,29.78,SW,225,17.7,18.6,44,0.00,,,0.13,WUHU21623XXSP,2013-03-08 23:41:00,
2013-03-08 15:46:00,46.8,26.4,29.78,South,180,2.7,18.6,45,0.00,,,0.13,WUHU21623XXSP,2013-03-08 23:46:00,
2013-03-08 15:51:00,46.2,26.4,29.78,South,180,14.5,22.6,46,0.00,,,0.13,WUHU21623XXSP,2013-03-08 23:51:00,
2013-03-08 15:56:00,45.7,26.0,29.78,SSW,202,20.1,22.6,46,0.00,,,0.13,WUHU21623XXSP,2013-03-08 23:56:00,
2013-03-08 16:01:00,45.7,26.0,29.78,SW,225,6.7,20.1,46,0.00,,,0.13,WUHU21623XXSP,2013-03-09 00:01:00,
2013-03-08 16:06:00,45.5,25.8,29.78,SW,225,8.5,20.1,46,0.00,,,0.13,WUHU21623XXSP,2013-03-09 00:06:00,
2013-03-08 16:11:00,45.0,25.8,29.79,SSW,202,8.3,20.1,47,0.00,,,0.13,WUHU21623XXSP,2013-03-09 00:11:00,
2013-03-08 16:16:00,44.8,25.7,29.79,SSW,202,20.8,20.8,47,0.00,,,0.13,WUHU21623XXSP,2013-03-09 00:16:00,
2013-03-08 16:21:00,44.6,26.1,29.79,SSW,202,13.2,20.8,48,0.00,,,0.13,WUHU21623XXSP,2013-03-09 00:21:00,
2013-03-08 16:26:00,44.4,25.9,29.79,South,180,13.6,15.4,48,0.00,,,0.13,WUHU21623XXSP,2013-03-09 00:26:00,
2013-03-08 16:31:00,43.9,25.4,29.79,SSW,202,10.3,14.3,48,0.00,,,0.13,WUHU21623XXSP,2013-03-09 00:31:00,
2013-03-08 16:36:00,43.9,26.0,29.79,SSW,202,3.4,11.4,49,0.00,,,0.13,WUHU21623XXSP,2013-03-09 00:36:00,
2013-03-08 16:41:00,43.9,26.0,29.79,SSW,202,1.8,13.9,49,0.00,,,0.13,WUHU21623XXSP,2013-03-09 00:41:00,
2013-03-08 16:46:00,43.3,26.0,29.79,SSW,202,7.6,16.6,50,0.00,,,0.13,WUHU21623XXSP,2013-03-09 00:46:00,
2013-03-08 16:51:00,43.3,26.0,29.80,SSW,202,3.1,16.6,50,0.00,,,0.13,WUHU21623XXSP,2013-03-09 00:51:00,
2013-03-08 16:56:00,43.5,25.6,29.80,SSW,202,0.0,10.3,49,0.00,,,0.13,WUHU21623XXSP,2013-03-09 00:56:00,
2013-03-08 17:01:00,43.5,25.6,29.80,SSW,202,0.0,7.6,49,0.00,,,0.13,WUHU21623XXSP,2013-03-09 01:01:00,
2013-03-08 17:06:00,43.2,25.8,29.80,SSW,202,0.0,0.0,50,0.00,,,0.13,WUHU21623XXSP,2013-03-09 01:06:00,
2013-03-08 17:11:00,44.1,26.7,29.81,SSW,202,0.0,0.0,50,0.00,,,0.13,WUHU21623XXSP,2013-03-09 01:11:00,
2013-03-08 17:16:00,44.6,27.1,29.81,SSW,202,0.0,0.0,50,0.00,,,0.13,WUHU21623XXSP,2013-03-09 01:16:00,
2013-03-08 17:21:00,44.8,26.8,29.82,SSW,202,0.0,0.0,49,0.00,,,0.13,WUHU21623XXSP,2013-03-09 01:21:00,
2013-03-08 17:26:00,44.2,27.2,29.82,SSW,202,6.7,7.4,51,0.00,,,0.13,WUHU21623XXSP,2013-03-09 01:26:00,
2013-03-08 17:32:00,42.4,26.5,29.82,SSE,157,2.5,16.1,53,0.00,,,0.13,WUHU21623XXSP,2013-03-09 01:32:00,
2013-03-08 17:37:00,41.9,26.4,29.82,SSE,157,1.1,16.1,54,0.00,,,0.13,WUHU21623XXSP,2013-03-09 01:37:00,
2013-03-08 17:42:00,41.5,26.5,29.82,SSE,157,6.7,11.2,55,0.00,,,0.13,WUHU21623XXSP,2013-03-09 01:42:00,
2013-03-08 17:47:00,41.4,26.3,29.83,South,180,8.9,11.6,55,0.00,,,0.13,WUHU21623XXSP,2013-03-09 01:47:00,
2013-03-08 17:52:00,41.4,26.7,29.83,SE,135,0.0,11.6,56,0.00,,,0.13,WUHU21623XXSP,2013-03-09 01:52:00,
2013-03-08 17:57:00,41.5,26.9,29.83,South,180,4.3,8.3,56,0.00,,,0.13,WUHU21623XXSP,2013-03-09 01:57:00,
2013-03-08 18:02:00,41.5,26.9,29.83,SSE,157,0.0,8.1,56,0.00,,,0.13,WUHU21623XXSP,2013-03-09 02:02:00,
2013-03-08 18:07:00,41.7,27.1,29.83,South,180,0.0,8.5,56,0.00,,,0.13,WUHU21623XXSP,2013-03-09 02:07:00,
2013-03-08 18:12:00,41.9,27.7,29.83,SSE,157,0.0,8.7,57,0.00,,,0.13,WUHU21623XXSP,2013-03-09 02:12:00,
2013-03-08 18:17:00,41.7,27.5,29.83,ESE,112,0.0,8.7,57,0.00,,,0.13,WUHU21623XXSP,2013-03-09 02:17:00,
2013-03-08 18:22:00,41.7,27.5,29.83,SE,135,0.0,6.5,57,0.00,,,0.13,WUHU21623XXSP,2013-03-09 02:22:00,
2013-03-08 18:27:00,41.5,27.8,29.83,SSE,157,0.0,3.6,58,0.00,,,0.13,WUHU21623XXSP,2013-03-09 02:27:00,
2013-03-08 18:32:00,41.5,27.8,29.84,South,180,0.0,3.6,58,0.00,,,0.13,WUHU21623XXSP,2013-03-09 02:32:00,
2013-03-08 18:37:00,41.5,28.3,29.84,South,180,0.0,3.8,59,0.00,,,0.13,WUHU21623XXSP,2013-03-09 02:37:00,
2013-03-08 18:42:00,41.2,28.4,29.84,South,180,0.0,10.1,60,0.00,,,0.13,WUHU21623XXSP,2013-03-09 02:42:00,
2013-03-08 18:47:00,40.6,28.2,29.84,SSE,157,5.4,10.5,61,0.00,,,0.13,WUHU21623XXSP,2013-03-09 02:47:00,
2013-03-08 18:52:00,40.6,28.2,29.84,SSE,157,0.0,10.5,61,0.00,,,0.13,WUHU21623XXSP,2013-03-09 02:52:00,
2013-03-08 18:57:00,40.5,28.1,29.84,South,180,3.8,7.6,61,0.00,,,0.13,WUHU21623XXSP,2013-03-09 02:57:00,
2013-03-08 19:02:00,40.8,28.4,29.85,South,180,0.0,7.8,61,0.00,,,0.13,WUHU21623XXSP,2013-03-09 03:02:00,
2013-03-08 19:07:00,41.0,28.6,29.85,South,180,0.0,5.6,61,0.00,,,0.13,WUHU21623XXSP,2013-03-09 03:07:00,
2013-03-08 19:12:00,41.4,28.5,29.85,South,180,5.6,6.3,60,0.00,,,0.13,WUHU21623XXSP,2013-03-09 03:12:00,
2013-03-08 19:17:00,41.4,28.5,29.85,South,180,5.4,7.6,60,0.00,,,0.13,WUHU21623XXSP,2013-03-09 03:17:00,
2013-03-08 19:22:00,41.2,28.4,29.85,SSW,202,1.6,10.3,60,0.00,,,0.13,WUHU21623XXSP,2013-03-09 03:22:00,
2013-03-08 19:27:00,40.8,28.4,29.85,SSW,202,8.7,13.9,61,0.00,,,0.13,WUHU21623XXSP,2013-03-09 03:27:00,
2013-03-08 19:32:00,40.8,28.4,29.85,SSW,202,6.7,13.9,61,0.00,,,0.13,WUHU21623XXSP,2013-03-09 03:32:00,
2013-03-08 19:37:00,40.6,28.2,29.85,SSW,202,2.0,14.3,61,0.00,,,0.13,WUHU21623XXSP,2013-03-09 03:37:00,
2013-03-08 19:42:00,40.6,28.2,29.86,SSW,202,7.8,14.3,61,0.00,,,0.13,WUHU21623XXSP,2013-03-09 03:42:00,
2013-03-08 19:47:00,40.8,28.4,29.86,SSW,202,1.3,15.7,61,0.00,,,0.13,WUHU21623XXSP,2013-03-09 03:47:00,
2013-03-08 19:52:00,40.6,28.6,29.86,South,180,0.0,17.4,62,0.00,,,0.13,WUHU21623XXSP,2013-03-09 03:52:00,
2013-03-08 19:57:00,40.5,28.4,29.86,SSW,202,3.4,17.4,62,0.00,,,0.13,WUHU21623XXSP,2013-03-09 03:57:00,
2013-03-08 20:02:00,40.5,28.4,29.86,SSW,202,7.2,17.4,62,0.00,,,0.13,WUHU21623XXSP,2013-03-09 04:02:00,
2013-03-08 20:07:00,40.6,29.0,29.86,SW,225,4.5,21.0,63,0.00,,,0.13,WUHU21623XXSP,2013-03-09 04:07:00,
2013-03-08 20:12:00,40.6,29.4,29.87,SSW,202,9.2,21.0,64,0.00,,,0.13,WUHU21623XXSP,2013-03-09 04:12:00,
2013-03-08 20:17:00,40.1,28.8,29.86,South,180,7.8,16.1,64,0.00,,,0.13,WUHU21623XXSP,2013-03-09 04:17:00,
2013-03-08 20:22:00,39.9,28.7,29.86,SSW,202,7.2,20.4,64,0.00,,,0.13,WUHU21623XXSP,2013-03-09 04:22:00,
2013-03-08 20:27:00,39.7,28.9,29.87,SSW,202,19.2,20.4,65,0.00,,,0.13,WUHU21623XXSP,2013-03-09 04:27:00,
2013-03-08 20:33:00,39.7,28.9,29.87,South,180,8.7,21.0,65,0.00,,,0.13,WUHU21623XXSP,2013-03-09 04:33:00,
2013-03-08 20:38:00,39.9,29.0,29.88,SSW,202,2.0,21.0,65,0.00,,,0.13,WUHU21623XXSP,2013-03-09 04:38:00,
2013-03-08 20:43:00,39.9,29.0,29.88,South,180,5.8,13.6,65,0.00,,,0.13,WUHU21623XXSP,2013-03-09 04:43:00,
2013-03-08 20:48:00,39.9,29.4,29.88,SSE,157,10.7,13.6,66,0.00,,,0.13,WUHU21623XXSP,2013-03-09 04:48:00,
2013-03-08 20:53:00,39.9,29.0,29.88,SSW,202,8.9,14.8,65,0.00,,,0.13,WUHU21623XXSP,2013-03-09 04:53:00,
2013-03-08 20:58:00,39.9,29.0,29.88,SSW,202,7.8,14.8,65,0.00,,,0.13,WUHU21623XXSP,2013-03-09 04:58:00,
2013-03-08 21:00:00,39.9,29.0,29.88,SW,225,4.5,14.1,65,0.00,,,0.13,WUHU21623XXSP,2013-03-09 05:00:00,
2013-03-08 21:01:00,39.9,29.0,29.88,SSW,202,4.7,14.3,65,0.00,,,0.13,WUHU21623XXSP,2013-03-09 05:01:00,
2013-03-08 21:06:00,39.9,29.0,29.88,SSW,202,2.5,15.9,65,0.00,,,0.13,WUHU21623XXSP,2013-03-09 05:06:00,
2013-03-08 21:11:00,39.9,29.0,29.88,South,180,0.0,15.9,65,0.00,,,0.13,WUHU21623XXSP,2013-03-09 05:11:00,
2013-03-08 21:16:00,39.9,29.0,29.88,SSE,157,11.6,15.0,65,0.00,,,0.13,WUHU21623XXSP,2013-03-09 05:16:00,
2013-03-08 21:21:00,39.9,29.0,29.89,SSW,202,4.0,14.1,65,0.00,,,0.13,WUHU21623XXSP,2013-03-09 05:21:00,
2013-03-08 21:26:00,39.9,29.0,29.89,SSW,202,4.9,15.0,65,0.00,,,0.13,WUHU21623XXSP,2013-03-09 05:26:00,
2013-03-08 21:31:00,39.9,29.0,29.89,SSW,202,5.4,15.0,65,0.00,,,0.13,WUHU21623XXSP,2013-03-09 05:31:00,
2013-03-08 21:36:00,39.9,29.0,29.89,SSW,202,0.0,16.8,65,0.00,,,0.13,WUHU21623XXSP,2013-03-09 05:36:00,
2013-03-08 21:41:00,40.1,28.8,29.89,SW,225,10.7,16.8,64,0.00,,,0.13,WUHU21623XXSP,2013-03-09 05:41:00,
2013-03-08 21:46:00,39.9,28.7,29.88,SSW,202,8.1,15.9,64,0.00,,,0.13,WUHU21623XXSP,2013-03-09 05:46:00,
2013-03-08 21:51:00,39.9,28.7,29.89,SSW,202,9.8,16.3,64,0.00,,,0.13,WUHU21623XXSP,2013-03-09 05:51:00,
2013-03-08 21:56:00,40.1,28.8,29.89,SSW,202,8.9,16.3,64,0.00,,,0.13,WUHU21623XXSP,2013-03-09 05:56:00,
2013-03-08 22:01:00,40.3,29.0,29.89,SW,225,12.1,17.2,64,0.00,,,0.13,WUHU21623XXSP,2013-03-09 06:01:00,
2013-03-08 22:06:00,39.9,28.7,29.89,SW,225,13.2,21.9,64,0.00,,,0.13,WUHU21623XXSP,2013-03-09 06:06:00,
2013-03-08 22:11:00,40.3,29.0,29.89,SSW,202,4.5,21.9,64,0.00,,,0.13,WUHU21623XXSP,2013-03-09 06:11:00,
2013-03-08 22:16:00,40.3,28.6,29.89,SSW,202,2.5,18.1,63,0.00,,,0.13,WUHU21623XXSP,2013-03-09 06:16:00,
2013-03-08 22:21:00,40.1,28.8,29.89,SSW,202,1.6,17.2,64,0.00,,,0.13,WUHU21623XXSP,2013-03-09 06:21:00,
2013-03-08 22:26:00,40.3,28.6,29.89,SSW,202,10.1,17.2,63,0.00,,,0.13,WUHU21623XXSP,2013-03-09 06:26:00,
2013-03-08 22:31:00,40.3,28.6,29.89,SSW,202,5.4,14.1,63,0.00,,,0.13,WUHU21623XXSP,2013-03-09 06:31:00,
2013-03-08 22:36:00,40.3,28.6,29.89,SSW,202,2.9,16.1,63,0.00,,,0.13,WUHU21623XXSP,2013-03-09 06:36:00,
2013-03-08 22:41:00,40.6,29.0,29.89,SSW,202,8.1,16.1,63,0.00,,,0.13,WUHU21623XXSP,2013-03-09 06:41:00,
2013-03-08 22:46:00,40.6,29.0,29.89,SW,225,10.5,13.6,63,0.00,,,0.13,WUHU21623XXSP,2013-03-09 06:46:00,
2013-03-08 22:51:00,40.6,29.0,29.89,SSW,202,15.0,15.0,63,0.00,,,0.13,WUHU21623XXSP,2013-03-09 06:51:00,
2013-03-08 22:56:00,40.6,29.0,29.89,South,180,7.6,15.2,63,0.00,,,0.13,WUHU21623XXSP,2013-03-09 06:56:00,
2013-03-08 23:01:00,40.6,29.0,29.89,South,180,9.4,16.1,63,0.00,,,0.13,WUHU21623XXSP,2013-03-09 07:01:00,
2013-03-08 23:06:00,40.6,29.0,29.89,SSE,157,9.4,16.1,63,0.00,,,0.13,WUHU21623XXSP,2013-03-09 07:06:00,
2013-03-08 23:11:00,40.5,29.2,29.89,SSW,202,13.2,15.2,64,0.00,,,0.13,WUHU21623XXSP,2013-03-09 07:11:00,
2013-03-08 23:16:00,40.3,29.0,29.89,SW,225,5.4,15.2,64,0.00,,,0.13,WUHU21623XXSP,2013-03-09 07:16:00,
2013-03-08 23:21:00,40.3,29.0,29.89,SSW,202,15.4,15.4,64,0.00,,,0.13,WUHU21623XXSP,2013-03-09 07:21:00,
2013-03-08 23:26:00,40.5,29.2,29.89,SSW,202,5.1,15.4,64,0.00,,,0.13,WUHU21623XXSP,2013-03-09 07:26:00,
2013-03-08 23:31:00,40.6,29.4,29.89,SW,225,11.6,21.7,64,0.00,,,0.13,WUHU21623XXSP,2013-03-09 07:31:00,
2013-03-08 23:36:00,40.5,29.2,29.89,SSW,202,8.5,23.7,64,0.00,,,0.13,WUHU21623XXSP,2013-03-09 07:36:00,
2013-03-08 23:41:00,40.6,29.4,29.89,SSW,202,11.6,23.7,64,0.00,,,0.13,WUHU21623XXSP,2013-03-09 07:41:00,
2013-03-08 23:46:00,40.8,29.2,29.89,South,180,12.8,18.8,63,0.00,,,0.13,WUHU21623XXSP,2013-03-09 07:46:00,
2013-03-08 23:51:00,40.8,29.6,29.89,SSW,202,12.5,19.7,64,0.00,,,0.13,WUHU21623XXSP,2013-03-09 07:51:00,
2013-03-08 23:56:00,40.6,29.8,29.90,SSW,202,5.8,17.0,65,0.00,,,0.13,WUHU21623XXSP,2013-03-09 07:56:00,